sensor_id;sensor_type;location;lat;lon;timestamp;P1;durP1;ratioP1;P2;durP2;ratioP2
6105;SDS011;3083;51.508;7.966;2024-01-15T00:01:45;30.23;;;12.30;;
6105;SDS011;3083;51.508;7.966;2024-01-15T00:04:12;31.50;;;11.90;;
6105;SDS011;3083;51.508;7.966;2024-01-15T00:06:40;35.43;;;12.53;;
6105;SDS011;3083;51.508;7.966;2024-01-15T00:09:07;34.97;;;12.50;;
6105;SDS011;3083;51.508;7.966;2024-01-15T00:11:34;34.37;;;13.90;;
6105;SDS011;3083;51.508;7.966;2024-01-15T00:14:01;35.57;;;12.47;;
6105;SDS011;3083;51.508;7.966;2024-01-15T00:16:28;35.37;;;12.80;;
6105;SDS011;3083;51.508;7.966;2024-01-15T00:18:55;33.47;;;12.63;;
6105;SDS011;3083;51.508;7.966;2024-01-15T00:21:21;33.53;;;13.57;;
6105;SDS011;3083;51.508;7.966;2024-01-15T00:23:50;33.03;;;13.17;;
6105;SDS011;3083;51.508;7.966;2024-01-15T00:26:17;40.70;;;14.27;;
6105;SDS011;3083;51.508;7.966;2024-01-15T00:28:44;42.57;;;14.63;;
6105;SDS011;3083;51.508;7.966;2024-01-15T00:31:10;33.47;;;13.23;;
6105;SDS011;3083;51.508;7.966;2024-01-15T00:33:37;36.57;;;14.63;;
6105;SDS011;3083;51.508;7.966;2024-01-15T00:36:04;41.97;;;14.30;;
6105;SDS011;3083;51.508;7.966;2024-01-15T00:38:32;30.83;;;11.97;;
6105;SDS011;3083;51.508;7.966;2024-01-15T00:41:00;33.20;;;13.60;;
6105;SDS011;3083;51.508;7.966;2024-01-15T00:43:27;31.80;;;12.60;;
6105;SDS011;3083;51.508;7.966;2024-01-15T00:45:53;38.20;;;13.87;;
6105;SDS011;3083;51.508;7.966;2024-01-15T00:48:20;33.00;;;12.80;;
6105;SDS011;3083;51.508;7.966;2024-01-15T00:50:47;36.80;;;14.40;;
6105;SDS011;3083;51.508;7.966;2024-01-15T00:53:14;33.87;;;12.40;;
6105;SDS011;3083;51.508;7.966;2024-01-15T00:55:41;36.33;;;14.70;;
6105;SDS011;3083;51.508;7.966;2024-01-15T00:58:09;40.20;;;14.20;;
6105;SDS011;3083;51.508;7.966;2024-01-15T01:00:36;40.60;;;15.67;;
6105;SDS011;3083;51.508;7.966;2024-01-15T01:03:02;42.70;;;13.63;;
6105;SDS011;3083;51.508;7.966;2024-01-15T01:05:29;42.60;;;15.03;;
6105;SDS011;3083;51.508;7.966;2024-01-15T01:07:56;45.20;;;14.23;;
6105;SDS011;3083;51.508;7.966;2024-01-15T01:10:23;39.40;;;14.40;;
6105;SDS011;3083;51.508;7.966;2024-01-15T01:12:50;39.50;;;13.90;;
6105;SDS011;3083;51.508;7.966;2024-01-15T01:15:18;45.83;;;14.40;;
6105;SDS011;3083;51.508;7.966;2024-01-15T01:17:45;32.50;;;14.20;;
6105;SDS011;3083;51.508;7.966;2024-01-15T01:20:12;39.17;;;13.73;;
6105;SDS011;3083;51.508;7.966;2024-01-15T01:22:40;44.27;;;15.40;;
6105;SDS011;3083;51.508;7.966;2024-01-15T01:25:07;40.63;;;14.90;;
6105;SDS011;3083;51.508;7.966;2024-01-15T01:27:35;46.10;;;16.37;;
6105;SDS011;3083;51.508;7.966;2024-01-15T01:30:02;40.70;;;15.50;;
6105;SDS011;3083;51.508;7.966;2024-01-15T01:32:31;42.03;;;15.50;;
6105;SDS011;3083;51.508;7.966;2024-01-15T01:34:58;46.20;;;16.50;;
6105;SDS011;3083;51.508;7.966;2024-01-15T01:37:25;38.53;;;14.97;;
6105;SDS011;3083;51.508;7.966;2024-01-15T01:39:52;42.20;;;17.00;;
6105;SDS011;3083;51.508;7.966;2024-01-15T01:42:18;40.33;;;15.60;;
6105;SDS011;3083;51.508;7.966;2024-01-15T01:44:45;46.13;;;15.13;;
6105;SDS011;3083;51.508;7.966;2024-01-15T01:47:12;47.20;;;14.20;;
6105;SDS011;3083;51.508;7.966;2024-01-15T01:49:42;39.57;;;14.77;;
6105;SDS011;3083;51.508;7.966;2024-01-15T01:52:09;44.13;;;13.50;;
6105;SDS011;3083;51.508;7.966;2024-01-15T01:54:36;38.17;;;14.27;;
6105;SDS011;3083;51.508;7.966;2024-01-15T01:57:04;53.93;;;16.50;;
6105;SDS011;3083;51.508;7.966;2024-01-15T01:59:32;43.27;;;15.43;;
6105;SDS011;3083;51.508;7.966;2024-01-15T02:02:00;48.03;;;16.20;;
6105;SDS011;3083;51.508;7.966;2024-01-15T02:04:29;44.57;;;14.07;;
6105;SDS011;3083;51.508;7.966;2024-01-15T02:06:58;45.43;;;13.87;;
6105;SDS011;3083;51.508;7.966;2024-01-15T02:09:25;43.67;;;16.47;;
6105;SDS011;3083;51.508;7.966;2024-01-15T02:11:52;46.23;;;17.00;;
6105;SDS011;3083;51.508;7.966;2024-01-15T02:14:19;44.77;;;15.50;;
6105;SDS011;3083;51.508;7.966;2024-01-15T02:16:46;40.23;;;14.60;;
6105;SDS011;3083;51.508;7.966;2024-01-15T02:19:16;44.93;;;14.60;;
6105;SDS011;3083;51.508;7.966;2024-01-15T02:21:43;40.23;;;14.50;;
6105;SDS011;3083;51.508;7.966;2024-01-15T02:24:12;43.27;;;15.13;;
6105;SDS011;3083;51.508;7.966;2024-01-15T02:26:39;44.63;;;14.87;;
6105;SDS011;3083;51.508;7.966;2024-01-15T02:29:06;55.87;;;16.40;;
6105;SDS011;3083;51.508;7.966;2024-01-15T02:31:34;42.23;;;15.23;;
6105;SDS011;3083;51.508;7.966;2024-01-15T02:34:01;38.67;;;15.07;;
6105;SDS011;3083;51.508;7.966;2024-01-15T02:36:28;43.13;;;15.30;;
6105;SDS011;3083;51.508;7.966;2024-01-15T02:38:55;47.37;;;14.60;;
6105;SDS011;3083;51.508;7.966;2024-01-15T02:41:23;48.13;;;14.10;;
6105;SDS011;3083;51.508;7.966;2024-01-15T02:43:50;36.50;;;12.13;;
6105;SDS011;3083;51.508;7.966;2024-01-15T02:46:16;40.17;;;14.00;;
6105;SDS011;3083;51.508;7.966;2024-01-15T02:48:43;35.53;;;14.37;;
6105;SDS011;3083;51.508;7.966;2024-01-15T02:51:10;44.43;;;14.53;;
6105;SDS011;3083;51.508;7.966;2024-01-15T02:53:37;41.67;;;12.90;;
6105;SDS011;3083;51.508;7.966;2024-01-15T02:56:06;40.50;;;13.90;;
6105;SDS011;3083;51.508;7.966;2024-01-15T02:58:34;44.00;;;14.07;;
6105;SDS011;3083;51.508;7.966;2024-01-15T03:01:01;45.23;;;13.63;;
6105;SDS011;3083;51.508;7.966;2024-01-15T03:03:28;41.90;;;13.27;;
6105;SDS011;3083;51.508;7.966;2024-01-15T03:05:55;38.73;;;13.80;;
6105;SDS011;3083;51.508;7.966;2024-01-15T03:08:22;44.60;;;13.53;;
6105;SDS011;3083;51.508;7.966;2024-01-15T03:10:49;38.50;;;14.00;;
6105;SDS011;3083;51.508;7.966;2024-01-15T03:13:15;41.03;;;12.97;;
6105;SDS011;3083;51.508;7.966;2024-01-15T03:15:45;28.80;;;12.33;;
6105;SDS011;3083;51.508;7.966;2024-01-15T03:18:12;39.80;;;13.10;;
6105;SDS011;3083;51.508;7.966;2024-01-15T03:20:39;34.67;;;13.20;;
6105;SDS011;3083;51.508;7.966;2024-01-15T03:23:06;40.70;;;13.30;;
6105;SDS011;3083;51.508;7.966;2024-01-15T03:25:32;35.10;;;11.43;;
6105;SDS011;3083;51.508;7.966;2024-01-15T03:27:59;34.77;;;11.53;;
6105;SDS011;3083;51.508;7.966;2024-01-15T03:30:27;29.53;;;12.10;;
6105;SDS011;3083;51.508;7.966;2024-01-15T03:32:55;34.93;;;13.60;;
6105;SDS011;3083;51.508;7.966;2024-01-15T03:35:22;36.50;;;12.40;;
6105;SDS011;3083;51.508;7.966;2024-01-15T03:37:54;34.90;;;11.47;;
6105;SDS011;3083;51.508;7.966;2024-01-15T03:40:21;44.10;;;13.87;;
6105;SDS011;3083;51.508;7.966;2024-01-15T03:42:47;30.90;;;12.10;;
6105;SDS011;3083;51.508;7.966;2024-01-15T03:45:14;47.27;;;13.53;;
6105;SDS011;3083;51.508;7.966;2024-01-15T03:47:41;34.43;;;12.97;;
6105;SDS011;3083;51.508;7.966;2024-01-15T03:50:09;36.70;;;12.47;;
6105;SDS011;3083;51.508;7.966;2024-01-15T03:52:36;36.40;;;13.80;;
6105;SDS011;3083;51.508;7.966;2024-01-15T03:55:04;37.33;;;13.80;;
6105;SDS011;3083;51.508;7.966;2024-01-15T03:57:31;36.50;;;12.40;;
6105;SDS011;3083;51.508;7.966;2024-01-15T03:59:58;37.83;;;12.60;;
6105;SDS011;3083;51.508;7.966;2024-01-15T04:02:25;44.87;;;13.33;;
6105;SDS011;3083;51.508;7.966;2024-01-15T04:04:52;37.67;;;13.67;;
6105;SDS011;3083;51.508;7.966;2024-01-15T04:07:20;36.33;;;11.10;;
6105;SDS011;3083;51.508;7.966;2024-01-15T04:09:47;36.97;;;13.47;;
6105;SDS011;3083;51.508;7.966;2024-01-15T04:12:13;37.83;;;12.83;;
6105;SDS011;3083;51.508;7.966;2024-01-15T04:14:40;38.67;;;12.97;;
6105;SDS011;3083;51.508;7.966;2024-01-15T04:17:07;33.67;;;10.73;;
6105;SDS011;3083;51.508;7.966;2024-01-15T04:19:34;32.60;;;12.90;;
6105;SDS011;3083;51.508;7.966;2024-01-15T04:22:01;41.07;;;13.80;;
6105;SDS011;3083;51.508;7.966;2024-01-15T04:24:29;31.60;;;12.30;;
6105;SDS011;3083;51.508;7.966;2024-01-15T04:26:57;39.80;;;12.20;;
6105;SDS011;3083;51.508;7.966;2024-01-15T04:29:24;28.53;;;11.67;;
6105;SDS011;3083;51.508;7.966;2024-01-15T04:31:51;32.97;;;12.30;;
6105;SDS011;3083;51.508;7.966;2024-01-15T04:34:19;35.60;;;12.20;;
6105;SDS011;3083;51.508;7.966;2024-01-15T04:36:45;40.33;;;11.50;;
6105;SDS011;3083;51.508;7.966;2024-01-15T04:39:12;39.57;;;14.00;;
6105;SDS011;3083;51.508;7.966;2024-01-15T04:41:40;24.90;;;11.67;;
6105;SDS011;3083;51.508;7.966;2024-01-15T04:44:07;37.70;;;12.70;;
6105;SDS011;3083;51.508;7.966;2024-01-15T04:46:34;40.80;;;12.27;;
6105;SDS011;3083;51.508;7.966;2024-01-15T04:49:01;36.13;;;12.30;;
6105;SDS011;3083;51.508;7.966;2024-01-15T04:51:28;32.37;;;12.53;;
6105;SDS011;3083;51.508;7.966;2024-01-15T04:53:54;33.50;;;11.10;;
6105;SDS011;3083;51.508;7.966;2024-01-15T04:56:21;35.67;;;13.30;;
6105;SDS011;3083;51.508;7.966;2024-01-15T04:58:49;28.43;;;11.40;;
6105;SDS011;3083;51.508;7.966;2024-01-15T05:01:16;34.00;;;11.73;;
6105;SDS011;3083;51.508;7.966;2024-01-15T05:03:43;28.90;;;10.33;;
6105;SDS011;3083;51.508;7.966;2024-01-15T05:06:10;35.10;;;11.53;;
6105;SDS011;3083;51.508;7.966;2024-01-15T05:08:37;31.80;;;11.53;;
6105;SDS011;3083;51.508;7.966;2024-01-15T05:11:03;29.83;;;12.20;;
6105;SDS011;3083;51.508;7.966;2024-01-15T05:13:30;34.47;;;11.57;;
6105;SDS011;3083;51.508;7.966;2024-01-15T05:15:59;32.90;;;11.03;;
6105;SDS011;3083;51.508;7.966;2024-01-15T05:18:25;31.30;;;11.30;;
6105;SDS011;3083;51.508;7.966;2024-01-15T05:20:52;28.87;;;10.27;;
6105;SDS011;3083;51.508;7.966;2024-01-15T05:23:19;32.30;;;10.90;;
6105;SDS011;3083;51.508;7.966;2024-01-15T05:25:46;31.10;;;11.20;;
6105;SDS011;3083;51.508;7.966;2024-01-15T05:28:13;27.90;;;11.20;;
6105;SDS011;3083;51.508;7.966;2024-01-15T05:30:40;32.77;;;9.17;;
6105;SDS011;3083;51.508;7.966;2024-01-15T05:33:08;32.53;;;10.23;;
6105;SDS011;3083;51.508;7.966;2024-01-15T05:35:35;29.47;;;10.37;;
6105;SDS011;3083;51.508;7.966;2024-01-15T05:38:02;25.90;;;9.67;;
6105;SDS011;3083;51.508;7.966;2024-01-15T05:40:29;27.67;;;10.10;;
6105;SDS011;3083;51.508;7.966;2024-01-15T05:42:56;26.50;;;11.80;;
6105;SDS011;3083;51.508;7.966;2024-01-15T05:45:23;36.73;;;10.80;;
6105;SDS011;3083;51.508;7.966;2024-01-15T05:47:50;26.70;;;9.60;;
6105;SDS011;3083;51.508;7.966;2024-01-15T05:50:18;25.77;;;8.93;;
6105;SDS011;3083;51.508;7.966;2024-01-15T05:52:45;27.77;;;9.03;;
6105;SDS011;3083;51.508;7.966;2024-01-15T05:55:11;22.30;;;8.27;;
6105;SDS011;3083;51.508;7.966;2024-01-15T05:57:38;26.27;;;10.00;;
6105;SDS011;3083;51.508;7.966;2024-01-15T06:00:05;26.13;;;12.03;;
6105;SDS011;3083;51.508;7.966;2024-01-15T06:02:33;24.57;;;8.63;;
6105;SDS011;3083;51.508;7.966;2024-01-15T06:05:00;21.90;;;9.07;;
6105;SDS011;3083;51.508;7.966;2024-01-15T06:07:29;25.27;;;10.50;;
6105;SDS011;3083;51.508;7.966;2024-01-15T06:09:56;22.70;;;8.90;;
6105;SDS011;3083;51.508;7.966;2024-01-15T06:12:23;27.47;;;8.90;;
6105;SDS011;3083;51.508;7.966;2024-01-15T06:14:50;27.77;;;10.17;;
6105;SDS011;3083;51.508;7.966;2024-01-15T06:17:17;25.20;;;8.07;;
6105;SDS011;3083;51.508;7.966;2024-01-15T06:19:44;23.67;;;9.57;;
6105;SDS011;3083;51.508;7.966;2024-01-15T06:22:11;21.17;;;8.60;;
6105;SDS011;3083;51.508;7.966;2024-01-15T06:24:39;23.80;;;8.30;;
6105;SDS011;3083;51.508;7.966;2024-01-15T06:27:06;30.80;;;9.63;;
6105;SDS011;3083;51.508;7.966;2024-01-15T06:29:32;23.23;;;7.83;;
6105;SDS011;3083;51.508;7.966;2024-01-15T06:31:59;25.43;;;9.40;;
6105;SDS011;3083;51.508;7.966;2024-01-15T06:34:26;29.47;;;8.93;;
6105;SDS011;3083;51.508;7.966;2024-01-15T06:36:53;21.27;;;8.73;;
6105;SDS011;3083;51.508;7.966;2024-01-15T06:39:20;25.63;;;8.47;;
6105;SDS011;3083;51.508;7.966;2024-01-15T06:41:48;26.73;;;10.43;;
6105;SDS011;3083;51.508;7.966;2024-01-15T06:44:15;21.07;;;7.93;;
6105;SDS011;3083;51.508;7.966;2024-01-15T06:46:42;24.47;;;9.70;;
6105;SDS011;3083;51.508;7.966;2024-01-15T06:49:09;25.73;;;9.27;;
6105;SDS011;3083;51.508;7.966;2024-01-15T06:51:36;21.53;;;9.10;;
6105;SDS011;3083;51.508;7.966;2024-01-15T06:54:03;23.87;;;9.50;;
6105;SDS011;3083;51.508;7.966;2024-01-15T06:56:30;27.60;;;9.73;;
6105;SDS011;3083;51.508;7.966;2024-01-15T06:58:59;24.50;;;8.57;;
6105;SDS011;3083;51.508;7.966;2024-01-15T07:01:26;33.23;;;9.97;;
6105;SDS011;3083;51.508;7.966;2024-01-15T07:03:53;22.70;;;9.83;;
6105;SDS011;3083;51.508;7.966;2024-01-15T07:06:19;28.27;;;9.87;;
6105;SDS011;3083;51.508;7.966;2024-01-15T07:08:46;27.83;;;9.80;;
6105;SDS011;3083;51.508;7.966;2024-01-15T07:11:13;38.43;;;8.90;;
6105;SDS011;3083;51.508;7.966;2024-01-15T07:13:40;23.83;;;8.30;;
6105;SDS011;3083;51.508;7.966;2024-01-15T07:16:08;26.67;;;9.80;;
6105;SDS011;3083;51.508;7.966;2024-01-15T07:18:35;22.33;;;8.20;;
6105;SDS011;3083;51.508;7.966;2024-01-15T07:21:02;18.43;;;7.60;;
6105;SDS011;3083;51.508;7.966;2024-01-15T07:23:30;34.97;;;9.90;;
6105;SDS011;3083;51.508;7.966;2024-01-15T07:25:57;28.17;;;7.77;;
6105;SDS011;3083;51.508;7.966;2024-01-15T07:28:24;23.00;;;9.13;;
6105;SDS011;3083;51.508;7.966;2024-01-15T07:30:51;18.73;;;8.90;;
6105;SDS011;3083;51.508;7.966;2024-01-15T07:33:19;22.17;;;8.27;;
6105;SDS011;3083;51.508;7.966;2024-01-15T07:35:45;21.23;;;8.30;;
6105;SDS011;3083;51.508;7.966;2024-01-15T07:38:12;21.97;;;8.00;;
6105;SDS011;3083;51.508;7.966;2024-01-15T07:40:39;20.23;;;8.70;;
6105;SDS011;3083;51.508;7.966;2024-01-15T07:43:06;25.40;;;8.97;;
6105;SDS011;3083;51.508;7.966;2024-01-15T07:45:33;23.30;;;9.60;;
6105;SDS011;3083;51.508;7.966;2024-01-15T07:47:59;21.17;;;7.67;;
6105;SDS011;3083;51.508;7.966;2024-01-15T07:50:28;16.57;;;7.10;;
6105;SDS011;3083;51.508;7.966;2024-01-15T07:52:54;22.77;;;8.37;;
6105;SDS011;3083;51.508;7.966;2024-01-15T07:55:21;25.03;;;9.07;;
6105;SDS011;3083;51.508;7.966;2024-01-15T07:57:48;20.30;;;8.30;;
6105;SDS011;3083;51.508;7.966;2024-01-15T08:00:17;21.90;;;9.47;;
6105;SDS011;3083;51.508;7.966;2024-01-15T08:02:44;23.13;;;8.30;;
6105;SDS011;3083;51.508;7.966;2024-01-15T08:05:10;22.10;;;8.07;;
6105;SDS011;3083;51.508;7.966;2024-01-15T08:07:39;27.33;;;9.40;;
6105;SDS011;3083;51.508;7.966;2024-01-15T08:10:06;22.50;;;8.37;;
6105;SDS011;3083;51.508;7.966;2024-01-15T08:12:33;20.23;;;8.20;;
6105;SDS011;3083;51.508;7.966;2024-01-15T08:15:00;21.90;;;8.83;;
6105;SDS011;3083;51.508;7.966;2024-01-15T08:17:26;22.37;;;8.83;;
6105;SDS011;3083;51.508;7.966;2024-01-15T08:19:54;19.90;;;7.63;;
6105;SDS011;3083;51.508;7.966;2024-01-15T08:22:21;29.37;;;9.80;;
6105;SDS011;3083;51.508;7.966;2024-01-15T08:24:50;22.70;;;10.40;;
6105;SDS011;3083;51.508;7.966;2024-01-15T08:27:17;25.67;;;9.80;;
6105;SDS011;3083;51.508;7.966;2024-01-15T08:29:45;24.13;;;9.10;;
6105;SDS011;3083;51.508;7.966;2024-01-15T08:32:11;22.23;;;7.83;;
6105;SDS011;3083;51.508;7.966;2024-01-15T08:34:40;26.83;;;8.40;;
6105;SDS011;3083;51.508;7.966;2024-01-15T08:37:08;25.90;;;9.63;;
6105;SDS011;3083;51.508;7.966;2024-01-15T08:39:34;21.60;;;8.50;;
6105;SDS011;3083;51.508;7.966;2024-01-15T08:42:05;23.80;;;9.60;;
6105;SDS011;3083;51.508;7.966;2024-01-15T08:44:32;22.13;;;8.00;;
6105;SDS011;3083;51.508;7.966;2024-01-15T08:46:59;23.93;;;8.60;;
6105;SDS011;3083;51.508;7.966;2024-01-15T08:49:28;19.87;;;7.90;;
6105;SDS011;3083;51.508;7.966;2024-01-15T08:51:54;23.10;;;8.07;;
6105;SDS011;3083;51.508;7.966;2024-01-15T08:54:21;16.77;;;6.60;;
6105;SDS011;3083;51.508;7.966;2024-01-15T08:56:48;15.57;;;6.87;;
6105;SDS011;3083;51.508;7.966;2024-01-15T08:59:16;19.70;;;8.10;;
6105;SDS011;3083;51.508;7.966;2024-01-15T09:01:49;17.70;;;6.83;;
6105;SDS011;3083;51.508;7.966;2024-01-15T09:04:16;13.60;;;6.57;;
6105;SDS011;3083;51.508;7.966;2024-01-15T09:06:44;16.17;;;7.47;;
6105;SDS011;3083;51.508;7.966;2024-01-15T09:09:11;15.13;;;6.67;;
6105;SDS011;3083;51.508;7.966;2024-01-15T09:11:38;17.40;;;6.57;;
6105;SDS011;3083;51.508;7.966;2024-01-15T09:14:05;21.53;;;7.00;;
6105;SDS011;3083;51.508;7.966;2024-01-15T09:16:34;16.07;;;6.83;;
6105;SDS011;3083;51.508;7.966;2024-01-15T09:19:01;15.53;;;6.70;;
6105;SDS011;3083;51.508;7.966;2024-01-15T09:21:28;17.20;;;7.10;;
6105;SDS011;3083;51.508;7.966;2024-01-15T09:23:55;17.87;;;7.20;;
6105;SDS011;3083;51.508;7.966;2024-01-15T09:26:23;16.80;;;8.00;;
6105;SDS011;3083;51.508;7.966;2024-01-15T09:28:50;18.13;;;7.37;;
6105;SDS011;3083;51.508;7.966;2024-01-15T09:31:16;20.40;;;7.97;;
6105;SDS011;3083;51.508;7.966;2024-01-15T09:33:46;16.37;;;6.93;;
6105;SDS011;3083;51.508;7.966;2024-01-15T09:36:13;18.20;;;7.93;;
6105;SDS011;3083;51.508;7.966;2024-01-15T09:38:40;18.97;;;7.73;;
6105;SDS011;3083;51.508;7.966;2024-01-15T09:41:07;17.20;;;6.80;;
6105;SDS011;3083;51.508;7.966;2024-01-15T09:43:34;15.37;;;6.70;;
6105;SDS011;3083;51.508;7.966;2024-01-15T09:46:03;18.60;;;8.07;;
6105;SDS011;3083;51.508;7.966;2024-01-15T09:48:30;19.60;;;6.80;;
6105;SDS011;3083;51.508;7.966;2024-01-15T09:51:00;18.93;;;8.20;;
6105;SDS011;3083;51.508;7.966;2024-01-15T09:53:28;15.23;;;7.27;;
6105;SDS011;3083;51.508;7.966;2024-01-15T09:55:57;16.27;;;7.63;;
6105;SDS011;3083;51.508;7.966;2024-01-15T09:58:24;18.67;;;8.33;;
6105;SDS011;3083;51.508;7.966;2024-01-15T10:00:52;17.40;;;7.40;;
6105;SDS011;3083;51.508;7.966;2024-01-15T10:03:20;17.57;;;7.33;;
6105;SDS011;3083;51.508;7.966;2024-01-15T10:05:47;14.20;;;6.60;;
6105;SDS011;3083;51.508;7.966;2024-01-15T10:08:17;15.97;;;6.90;;
6105;SDS011;3083;51.508;7.966;2024-01-15T10:10:44;26.30;;;7.97;;
6105;SDS011;3083;51.508;7.966;2024-01-15T10:13:11;18.87;;;8.23;;
6105;SDS011;3083;51.508;7.966;2024-01-15T10:15:39;17.10;;;7.53;;
6105;SDS011;3083;51.508;7.966;2024-01-15T10:18:07;14.77;;;7.30;;
6105;SDS011;3083;51.508;7.966;2024-01-15T10:20:35;17.97;;;6.83;;
6105;SDS011;3083;51.508;7.966;2024-01-15T10:23:02;16.20;;;7.50;;
6105;SDS011;3083;51.508;7.966;2024-01-15T10:25:31;17.17;;;8.20;;
6105;SDS011;3083;51.508;7.966;2024-01-15T10:28:02;16.03;;;6.83;;
6105;SDS011;3083;51.508;7.966;2024-01-15T10:30:29;14.57;;;6.60;;
6105;SDS011;3083;51.508;7.966;2024-01-15T10:32:58;16.13;;;7.57;;
6105;SDS011;3083;51.508;7.966;2024-01-15T10:35:26;16.00;;;7.40;;
6105;SDS011;3083;51.508;7.966;2024-01-15T10:37:54;23.20;;;8.70;;
6105;SDS011;3083;51.508;7.966;2024-01-15T10:40:21;15.50;;;7.23;;
6105;SDS011;3083;51.508;7.966;2024-01-15T10:42:49;15.73;;;6.67;;
6105;SDS011;3083;51.508;7.966;2024-01-15T10:45:16;18.90;;;7.20;;
6105;SDS011;3083;51.508;7.966;2024-01-15T10:47:43;17.93;;;7.10;;
6105;SDS011;3083;51.508;7.966;2024-01-15T10:50:11;15.33;;;7.17;;
6105;SDS011;3083;51.508;7.966;2024-01-15T10:52:39;17.63;;;7.67;;
6105;SDS011;3083;51.508;7.966;2024-01-15T10:55:07;18.60;;;6.60;;
6105;SDS011;3083;51.508;7.966;2024-01-15T10:57:35;15.83;;;6.50;;
6105;SDS011;3083;51.508;7.966;2024-01-15T11:00:04;20.60;;;7.30;;
6105;SDS011;3083;51.508;7.966;2024-01-15T11:02:32;16.47;;;6.53;;
6105;SDS011;3083;51.508;7.966;2024-01-15T11:05:00;14.97;;;6.50;;
6105;SDS011;3083;51.508;7.966;2024-01-15T11:07:27;11.10;;;5.20;;
6105;SDS011;3083;51.508;7.966;2024-01-15T11:09:57;19.37;;;6.20;;
6105;SDS011;3083;51.508;7.966;2024-01-15T11:12:25;13.97;;;6.60;;
6105;SDS011;3083;51.508;7.966;2024-01-15T11:14:58;13.40;;;5.63;;
6105;SDS011;3083;51.508;7.966;2024-01-15T11:17:31;13.20;;;5.30;;
6105;SDS011;3083;51.508;7.966;2024-01-15T11:20:28;9.40;;;4.73;;
6105;SDS011;3083;51.508;7.966;2024-01-15T11:22:56;8.33;;;4.30;;
6105;SDS011;3083;51.508;7.966;2024-01-15T11:25:24;12.07;;;5.57;;
6105;SDS011;3083;51.508;7.966;2024-01-15T11:28:01;12.37;;;5.70;;
6105;SDS011;3083;51.508;7.966;2024-01-15T11:30:28;10.70;;;5.13;;
6105;SDS011;3083;51.508;7.966;2024-01-15T11:32:56;12.70;;;5.87;;
6105;SDS011;3083;51.508;7.966;2024-01-15T11:35:23;13.10;;;5.37;;
6105;SDS011;3083;51.508;7.966;2024-01-15T11:38:26;13.47;;;5.63;;
6105;SDS011;3083;51.508;7.966;2024-01-15T11:40:54;12.57;;;5.13;;
6105;SDS011;3083;51.508;7.966;2024-01-15T11:43:21;15.23;;;5.67;;
6105;SDS011;3083;51.508;7.966;2024-01-15T11:45:49;13.20;;;5.57;;
6105;SDS011;3083;51.508;7.966;2024-01-15T11:48:20;17.70;;;5.80;;
6105;SDS011;3083;51.508;7.966;2024-01-15T11:50:49;14.17;;;5.97;;
6105;SDS011;3083;51.508;7.966;2024-01-15T11:53:17;13.50;;;6.63;;
6105;SDS011;3083;51.508;7.966;2024-01-15T11:55:54;13.23;;;5.37;;
6105;SDS011;3083;51.508;7.966;2024-01-15T11:58:25;13.33;;;5.83;;
6105;SDS011;3083;51.508;7.966;2024-01-15T12:00:52;16.00;;;6.50;;
6105;SDS011;3083;51.508;7.966;2024-01-15T12:03:21;17.07;;;7.07;;
6105;SDS011;3083;51.508;7.966;2024-01-15T12:05:48;15.50;;;7.00;;
6105;SDS011;3083;51.508;7.966;2024-01-15T12:08:20;15.67;;;6.63;;
6105;SDS011;3083;51.508;7.966;2024-01-15T12:10:47;14.43;;;6.70;;
6105;SDS011;3083;51.508;7.966;2024-01-15T12:13:14;18.83;;;6.30;;
6105;SDS011;3083;51.508;7.966;2024-01-15T12:15:43;15.97;;;7.40;;
6105;SDS011;3083;51.508;7.966;2024-01-15T12:18:11;12.70;;;5.87;;
6105;SDS011;3083;51.508;7.966;2024-01-15T12:20:40;17.57;;;6.80;;
6105;SDS011;3083;51.508;7.966;2024-01-15T12:23:07;11.70;;;6.10;;
6105;SDS011;3083;51.508;7.966;2024-01-15T12:25:35;12.60;;;6.13;;
6105;SDS011;3083;51.508;7.966;2024-01-15T12:28:02;12.27;;;5.77;;
6105;SDS011;3083;51.508;7.966;2024-01-15T12:30:30;15.03;;;6.17;;
6105;SDS011;3083;51.508;7.966;2024-01-15T12:33:00;13.43;;;6.80;;
6105;SDS011;3083;51.508;7.966;2024-01-15T12:35:28;12.47;;;6.23;;
6105;SDS011;3083;51.508;7.966;2024-01-15T12:37:57;14.27;;;5.70;;
6105;SDS011;3083;51.508;7.966;2024-01-15T12:40:27;13.80;;;6.83;;
6105;SDS011;3083;51.508;7.966;2024-01-15T12:42:54;11.37;;;5.90;;
6105;SDS011;3083;51.508;7.966;2024-01-15T12:45:21;15.83;;;5.50;;
6105;SDS011;3083;51.508;7.966;2024-01-15T12:47:48;12.27;;;5.67;;
6105;SDS011;3083;51.508;7.966;2024-01-15T12:50:16;15.83;;;6.60;;
6105;SDS011;3083;51.508;7.966;2024-01-15T12:52:43;14.17;;;6.20;;
6105;SDS011;3083;51.508;7.966;2024-01-15T12:55:11;13.47;;;6.23;;
6105;SDS011;3083;51.508;7.966;2024-01-15T12:57:38;19.03;;;6.47;;
6105;SDS011;3083;51.508;7.966;2024-01-15T13:00:05;12.73;;;5.97;;
6105;SDS011;3083;51.508;7.966;2024-01-15T13:02:37;11.40;;;6.50;;
6105;SDS011;3083;51.508;7.966;2024-01-15T13:05:06;14.20;;;6.10;;
6105;SDS011;3083;51.508;7.966;2024-01-15T13:07:34;14.83;;;6.70;;
6105;SDS011;3083;51.508;7.966;2024-01-15T13:10:01;15.17;;;7.07;;
6105;SDS011;3083;51.508;7.966;2024-01-15T13:12:29;13.13;;;6.00;;
6105;SDS011;3083;51.508;7.966;2024-01-15T13:14:57;13.63;;;6.03;;
6105;SDS011;3083;51.508;7.966;2024-01-15T13:17:24;13.80;;;6.43;;
6105;SDS011;3083;51.508;7.966;2024-01-15T13:19:51;9.97;;;5.30;;
6105;SDS011;3083;51.508;7.966;2024-01-15T13:22:18;18.00;;;6.77;;
6105;SDS011;3083;51.508;7.966;2024-01-15T13:24:45;12.93;;;6.67;;
6105;SDS011;3083;51.508;7.966;2024-01-15T13:27:12;12.80;;;5.83;;
6105;SDS011;3083;51.508;7.966;2024-01-15T13:29:40;14.13;;;5.40;;
6105;SDS011;3083;51.508;7.966;2024-01-15T13:32:07;14.93;;;6.07;;
6105;SDS011;3083;51.508;7.966;2024-01-15T13:34:35;14.43;;;5.40;;
6105;SDS011;3083;51.508;7.966;2024-01-15T13:37:02;12.97;;;5.73;;
6105;SDS011;3083;51.508;7.966;2024-01-15T13:39:29;15.77;;;7.30;;
6105;SDS011;3083;51.508;7.966;2024-01-15T13:41:58;13.97;;;5.90;;
6105;SDS011;3083;51.508;7.966;2024-01-15T13:44:25;13.80;;;6.47;;
6105;SDS011;3083;51.508;7.966;2024-01-15T13:46:54;15.93;;;6.90;;
6105;SDS011;3083;51.508;7.966;2024-01-15T13:49:22;12.83;;;6.70;;
6105;SDS011;3083;51.508;7.966;2024-01-15T13:51:49;16.20;;;6.37;;
6105;SDS011;3083;51.508;7.966;2024-01-15T13:54:16;14.10;;;6.90;;
6105;SDS011;3083;51.508;7.966;2024-01-15T13:56:43;15.80;;;6.57;;
6105;SDS011;3083;51.508;7.966;2024-01-15T13:59:10;12.80;;;6.30;;
6105;SDS011;3083;51.508;7.966;2024-01-15T14:01:38;12.00;;;6.07;;
6105;SDS011;3083;51.508;7.966;2024-01-15T14:04:06;13.30;;;6.40;;
6105;SDS011;3083;51.508;7.966;2024-01-15T14:06:33;13.77;;;6.73;;
6105;SDS011;3083;51.508;7.966;2024-01-15T14:09:00;12.77;;;6.60;;
6105;SDS011;3083;51.508;7.966;2024-01-15T14:11:29;11.73;;;5.33;;
6105;SDS011;3083;51.508;7.966;2024-01-15T14:13:56;13.03;;;7.10;;
6105;SDS011;3083;51.508;7.966;2024-01-15T14:16:23;10.63;;;5.20;;
6105;SDS011;3083;51.508;7.966;2024-01-15T14:18:50;11.40;;;6.03;;
6105;SDS011;3083;51.508;7.966;2024-01-15T14:21:18;13.87;;;6.67;;
6105;SDS011;3083;51.508;7.966;2024-01-15T14:23:45;12.73;;;6.13;;
6105;SDS011;3083;51.508;7.966;2024-01-15T14:26:12;15.20;;;6.87;;
6105;SDS011;3083;51.508;7.966;2024-01-15T14:28:39;12.33;;;6.50;;
6105;SDS011;3083;51.508;7.966;2024-01-15T14:31:06;12.60;;;6.30;;
6105;SDS011;3083;51.508;7.966;2024-01-15T14:33:32;18.17;;;6.67;;
6105;SDS011;3083;51.508;7.966;2024-01-15T14:35:59;16.33;;;6.83;;
6105;SDS011;3083;51.508;7.966;2024-01-15T14:38:28;12.10;;;6.10;;
6105;SDS011;3083;51.508;7.966;2024-01-15T14:40:55;9.37;;;5.63;;
6105;SDS011;3083;51.508;7.966;2024-01-15T14:43:22;11.70;;;6.07;;
6105;SDS011;3083;51.508;7.966;2024-01-15T14:45:48;15.73;;;6.67;;
6105;SDS011;3083;51.508;7.966;2024-01-15T14:48:15;11.33;;;6.20;;
6105;SDS011;3083;51.508;7.966;2024-01-15T14:50:42;13.00;;;5.60;;
6105;SDS011;3083;51.508;7.966;2024-01-15T14:53:09;32.67;;;12.20;;
6105;SDS011;3083;51.508;7.966;2024-01-15T14:55:37;11.97;;;6.33;;
6105;SDS011;3083;51.508;7.966;2024-01-15T14:58:04;10.50;;;5.63;;